Time;durP1;ratioP1;P1;durP2;ratioP2;P2;SDS_P1;SDS_P2;PMS_P1;PMS_P2;Temp;Humidity;BMP_temperature;BMP_pressure;BME280_temperature;BME280_humidity;BME280_pressure;Samples;Min_cycle;Max_cycle;Signal;HPM_P1;HPM_P2
2022/07/05 00:01:45;;;;;;;;;1.00;1.00;;;;;19.49;48.05;101534.59;4879285;29;45491;-83
2022/07/05 00:04:10;;;;;;;;;1.50;1.50;;;;;19.40;48.50;101519.47;4879629;29;46463;-85
2022/07/05 00:07:17;;;;;;;;;1.00;1.00;;;;;19.41;48.80;101536.25;4879053;29;45542;-84
2022/07/05 00:09:22;;;;;;;;;2.00;1.00;;;;;19.35;48.76;101524.38;4879028;29;45562;-85
2022/07/05 00:11:48;;;;;;;;;1.00;1.00;;;;;19.34;48.63;101524.53;4881799;29;46540;-85
2022/07/05 00:14:13;;;;;;;;;1.00;0.25;;;;;19.24;48.60;101528.03;4882156;29;46028;-80
2022/07/05 00:16:39;;;;;;;;;0.00;0.00;;;;;19.15;49.20;101522.75;4882301;29;45544;-83
2022/07/05 00:19:04;;;;;;;;;2.00;2.00;;;;;19.18;49.21;101525.09;4882535;29;45825;-82
2022/07/05 00:21:30;;;;;;;;;1.25;1.25;;;;;19.14;49.13;101524.56;4882379;29;45844;-83
2022/07/05 00:27:17;;;;;;;;;2.00;2.00;;;;;19.10;49.41;101539.13;4881909;29;45704;-84
2022/07/05 00:29:43;;;;;;;;;1.00;1.00;;;;;19.07;49.41;101536.72;4882227;29;45617;-81
2022/07/05 00:32:08;;;;;;;;;1.75;1.75;;;;;19.04;50.03;101530.88;4882782;29;46601;-81
2022/07/05 00:34:34;;;;;;;;;1.00;1.00;;;;;19.00;49.77;101527.63;4882473;29;45669;-81
2022/07/05 00:36:59;;;;;;;;;1.00;1.00;;;;;18.97;50.10;101532.41;4882308;29;45461;-82
2022/07/05 00:39:26;;;;;;;;;1.00;1.00;;;;;18.93;50.03;101526.53;4882541;29;46025;-82
2022/07/05 00:41:52;;;;;;;;;1.50;1.00;;;;;18.93;50.06;101525.69;4882004;29;46698;-79
2022/07/05 00:44:38;;;;;;;;;0.75;0.75;;;;;18.89;51.02;101519.84;4883462;29;45558;-81
2022/07/05 00:47:04;;;;;;;;;0.75;0.75;;;;;18.88;50.48;101520.81;4886495;29;45706;-82
2022/07/05 00:49:31;;;;;;;;;3.00;1.00;;;;;18.85;50.78;101531.69;4894664;29;45721;-79
2022/07/05 00:51:58;;;;;;;;;1.75;1.75;;;;;18.80;50.47;101525.97;4877364;29;48706;-83
2022/07/05 00:57:45;;;;;;;;;2.50;1.00;;;;;18.73;50.63;101532.84;4882568;29;45472;-85
2022/07/05 01:00:13;;;;;;;;;2.00;2.00;;;;;18.70;50.98;101528.63;4883520;29;45664;-88
2022/07/05 01:02:38;;;;;;;;;1.00;1.00;;;;;18.64;50.82;101525.69;4884119;29;45686;-82
2022/07/05 01:05:04;;;;;;;;;2.00;1.00;;;;;18.67;51.41;101539.53;4884157;29;46072;-81
2022/07/05 01:07:30;;;;;;;;;3.00;2.00;;;;;18.64;51.67;101537.13;4885698;29;45738;-86
2022/07/05 01:09:56;;;;;;;;;2.00;1.75;;;;;18.50;51.15;101520.75;4886256;29;45915;-80
2022/07/05 01:12:22;;;;;;;;;3.50;2.50;;;;;18.56;51.80;101534.34;4885267;29;46789;-81
2022/07/05 01:14:48;;;;;;;;;2.00;1.25;;;;;18.50;51.61;101528.72;4884834;29;46063;-84
2022/07/05 01:17:15;;;;;;;;;2.75;2.00;;;;;18.30;51.76;101523.34;4869118;29;45703;-85
2022/07/05 01:19:41;;;;;;;;;1.50;1.00;;;;;18.29;51.96;101523.53;4884057;29;45776;-83
2022/07/05 01:22:16;;;;;;;;;2.00;1.50;;;;;18.22;52.28;101517.06;4881728;29;45600;-79
2022/07/05 01:28:03;;;;;;;;;2.00;1.25;;;;;18.16;52.81;101528.22;4885706;29;45668;-81
2022/07/05 01:30:33;;;;;;;;;2.00;2.00;;;;;18.14;52.67;101519.56;4886629;29;45608;-80
2022/07/05 01:32:58;;;;;;;;;3.75;3.00;;;;;18.16;52.81;101525.56;4887840;29;46885;-79
2022/07/05 01:35:24;;;;;;;;;1.00;1.00;;;;;18.15;52.67;101530.03;4884789;29;46322;-80
2022/07/05 01:37:51;;;;;;;;;1.50;1.25;;;;;18.03;52.88;101512.53;4882382;29;45514;-79
2022/07/05 01:40:18;;;;;;;;;2.25;1.75;;;;;18.06;53.25;101511.44;4886631;29;45761;-79
2022/07/05 01:42:44;;;;;;;;;0.50;0.50;;;;;17.96;52.58;101522.88;4864875;29;47565;-79
2022/07/05 01:45:10;;;;;;;;;0.75;0.75;;;;;17.89;52.08;101527.00;4883545;29;45890;-79
2022/07/05 01:47:39;;;;;;;;;0.00;0.00;;;;;17.93;52.40;101532.88;4888176;29;45511;-81
2022/07/05 01:50:07;;;;;;;;;1.00;1.00;;;;;17.76;52.77;101512.31;4888779;29;46013;-79
2022/07/05 01:52:36;;;;;;;;;1.75;1.75;;;;;17.75;53.13;101519.44;4889845;29;45565;-80
2022/07/05 01:58:25;;;;;;;;;1.50;1.00;;;;;17.60;53.83;101526.03;4888077;29;45584;-78
2022/07/05 02:00:52;;;;;;;;;1.00;1.00;;;;;17.55;54.34;101523.75;4871542;29;45540;-83
2022/07/05 02:03:18;;;;;;;;;1.75;0.75;;;;;17.48;54.08;101527.91;4870948;29;47379;-84
2022/07/05 02:05:45;;;;;;;;;2.00;2.00;;;;;17.39;55.01;101515.44;4888643;29;45762;-83
2022/07/05 02:08:12;;;;;;;;;2.25;1.00;;;;;17.29;54.62;101505.75;4889029;29;45592;-80
2022/07/05 02:10:38;;;;;;;;;2.00;1.00;;;;;17.34;55.30;101528.22;4888481;29;45776;-80
2022/07/05 02:13:05;;;;;;;;;1.25;1.00;;;;;17.15;56.05;101515.72;4887260;29;45560;-80
2022/07/05 02:15:33;;;;;;;;;2.25;2.00;;;;;17.19;55.82;101517.13;4886799;29;45532;-80
2022/07/05 02:17:58;;;;;;;;;0.75;0.00;;;;;17.16;56.02;101504.16;4887467;29;45794;-84
2022/07/05 02:20:24;;;;;;;;;2.00;2.00;;;;;17.18;55.65;101510.16;4887765;29;45515;-79
2022/07/05 02:22:49;;;;;;;;;3.00;2.00;;;;;17.13;56.15;101503.56;4887148;29;45476;-82
2022/07/05 02:28:37;;;;;;;;;2.00;2.00;;;;;17.20;56.29;101525.91;4887411;29;45623;-80
2022/07/05 02:31:02;;;;;;;;;1.25;1.00;;;;;17.10;56.83;101509.97;4887607;29;45550;-83
2022/07/05 02:33:28;;;;;;;;;1.00;1.00;;;;;17.08;56.71;101506.59;4886980;29;45578;-81
2022/07/05 02:35:53;;;;;;;;;2.25;2.00;;;;;17.09;56.61;101513.59;4887053;29;45576;-80
2022/07/05 02:38:19;;;;;;;;;1.00;1.00;;;;;17.10;57.11;101506.47;4887609;29;45571;-81
2022/07/05 02:44:48;;;;;;;;;2.00;2.00;;;;;17.05;57.32;101506.88;4886325;29;45753;-80
2022/07/05 02:47:13;;;;;;;;;2.25;2.00;;;;;17.06;57.68;101505.88;4885241;29;45447;-82
2022/07/05 02:49:39;;;;;;;;;2.50;1.50;;;;;17.04;58.10;101507.00;4881718;29;45500;-78
2022/07/05 02:52:05;;;;;;;;;2.50;2.00;;;;;16.98;57.99;101504.84;4881960;29;45502;-78
2022/07/05 02:54:30;;;;;;;;;2.00;2.00;;;;;16.96;57.63;101512.06;4864171;29;47656;-79
2022/07/05 02:56:56;;;;;;;;;2.25;2.00;;;;;16.86;58.03;101487.34;4881846;29;46229;-81
2022/07/05 02:59:21;;;;;;;;;2.25;2.00;;;;;16.96;57.94;101517.38;4869630;29;45759;-83
2022/07/05 03:01:46;;;;;;;;;2.25;2.00;;;;;16.88;58.45;101501.28;4893122;29;45428;-80
2022/07/05 03:04:12;;;;;;;;;3.00;1.00;;;;;16.93;58.55;101510.53;4876133;29;47407;-82
2022/07/05 03:06:37;;;;;;;;;3.00;3.00;;;;;16.81;58.40;101500.97;4890103;29;45687;-85
2022/07/05 03:09:03;;;;;;;;;2.00;2.00;;;;;16.78;58.97;101510.00;4888951;29;45717;-80
2022/07/05 03:11:28;;;;;;;;;2.50;2.00;;;;;16.85;58.95;101512.97;4887030;29;45582;-80
2022/07/05 03:13:54;;;;;;;;;3.00;2.75;;;;;16.77;58.84;101510.97;4882086;29;47443;-81
2022/07/05 03:16:19;;;;;;;;;3.25;2.00;;;;;16.80;58.71;101520.44;4883897;29;45645;-82
2022/07/05 03:18:44;;;;;;;;;3.00;2.00;;;;;16.71;59.39;101502.69;4884302;29;45796;-81
2022/07/05 03:21:10;;;;;;;;;2.00;2.00;;;;;16.66;59.01;101505.72;4881592;29;45911;-79
2022/07/05 03:23:35;;;;;;;;;3.50;2.00;;;;;16.62;59.45;101504.28;4881682;29;45831;-80
2022/07/05 03:29:22;;;;;;;;;3.00;2.00;;;;;16.61;59.80;101521.13;4887214;29;45516;-80
2022/07/05 03:31:48;;;;;;;;;3.75;3.00;;;;;16.63;60.04;101515.69;4888122;29;45694;-81
2022/07/05 03:34:13;;;;;;;;;2.75;2.75;;;;;16.59;59.99;101509.81;4887863;29;45589;-81
2022/07/05 03:36:38;;;;;;;;;2.50;2.00;;;;;16.57;59.99;101514.34;4883489;29;45619;-79
2022/07/05 03:39:04;;;;;;;;;4.00;2.75;;;;;16.57;60.23;101521.47;4862782;29;45666;-80
2022/07/05 03:44:51;;;;;;;;;3.75;3.00;;;;;16.57;59.80;101530.22;4878151;29;45636;-79
2022/07/05 03:47:17;;;;;;;;;3.75;3.00;;;;;16.46;60.10;101514.41;4882326;29;46218;-80
2022/07/05 03:49:42;;;;;;;;;2.50;2.00;;;;;16.48;60.24;101519.56;4882365;29;45561;-80
2022/07/05 03:52:07;;;;;;;;;2.25;2.00;;;;;16.47;60.29;101521.38;4882950;29;45710;-80
2022/07/05 03:54:33;;;;;;;;;3.00;3.00;;;;;16.46;60.20;101524.16;4881962;29;45627;-79
2022/07/05 03:56:58;;;;;;;;;2.50;2.00;;;;;16.55;60.38;101544.56;4881801;29;45771;-81
2022/07/05 03:59:24;;;;;;;;;3.00;3.00;;;;;16.49;60.56;101540.63;4883762;29;45700;-83
2022/07/05 04:01:49;;;;;;;;;3.50;1.75;;;;;16.48;60.85;101543.38;4868930;29;45542;-78
2022/07/05 04:04:14;;;;;;;;;3.75;2.00;;;;;16.47;60.94;101552.25;4886350;29;45560;-81
2022/07/05 04:06:40;;;;;;;;;5.75;3.00;;;;;16.45;60.52;101541.81;4886021;29;45762;-83
2022/07/05 04:09:05;;;;;;;;;4.00;3.00;;;;;16.37;60.80;101528.38;4885063;29;45585;-81
2022/07/05 04:14:52;;;;;;;;;5.00;4.00;;;;;16.46;61.03;101554.09;4884312;29;45950;-79
2022/07/05 04:17:18;;;;;;;;;2.75;2.75;;;;;16.37;61.56;101541.59;4867470;29;47471;-80
2022/07/05 04:19:43;;;;;;;;;3.00;3.00;;;;;16.40;61.49;101543.16;4884029;29;45634;-80
2022/07/05 04:22:09;;;;;;;;;3.00;3.00;;;;;16.37;61.27;101545.06;4884682;29;45775;-81
2022/07/05 04:25:16;;;;;;;;;3.25;2.50;;;;;16.39;61.01;101544.97;4884781;29;46619;-82
2022/07/05 04:30:44;;;;;;;;;3.25;2.00;;;;;16.52;61.50;101569.44;4843928;29;45958;-81
2022/07/05 04:33:09;;;;;;;;;4.00;3.25;;;;;16.53;61.20;101565.00;4844213;29;45649;-79
2022/07/05 04:35:35;;;;;;;;;3.50;3.25;;;;;16.47;61.44;101562.84;4828680;29;46684;-80
2022/07/05 04:38:00;;;;;;;;;4.50;3.00;;;;;16.53;61.55;101565.00;4844352;29;45697;-80
2022/07/05 04:40:26;;;;;;;;;4.00;4.00;;;;;16.41;61.76;101547.50;4842453;29;45660;-81
2022/07/05 04:42:51;;;;;;;;;4.00;3.00;;;;;16.46;61.83;101567.31;4840850;29;45795;-80
2022/07/05 04:45:17;;;;;;;;;6.25;3.50;;;;;16.38;61.54;101554.69;4840852;29;46753;-80
2022/07/05 04:47:42;;;;;;;;;4.00;4.00;;;;;16.44;61.78;101568.41;4841571;29;45742;-80
2022/07/05 04:50:08;;;;;;;;;3.00;3.00;;;;;16.50;61.78;101570.56;4843250;29;45541;-85
2022/07/05 04:52:34;;;;;;;;;5.00;4.50;;;;;16.48;61.50;101564.53;4827365;29;45767;-80
2022/07/05 04:54:59;;;;;;;;;3.25;3.00;;;;;16.48;62.05;101572.47;4842000;29;45957;-82
2022/07/05 05:00:47;;;;;;;;;4.75;4.50;;;;;16.43;62.86;101566.72;4880365;29;45555;-80
2022/07/05 05:03:12;;;;;;;;;3.50;3.50;;;;;16.44;62.29;101571.03;4880621;29;45657;-80
2022/07/05 05:05:38;;;;;;;;;4.25;4.25;;;;;16.44;62.18;101582.47;4880176;29;46473;-80
2022/07/05 05:08:03;;;;;;;;;5.50;4.50;;;;;16.41;62.70;101582.69;4880101;29;45661;-80
2022/07/05 05:10:29;;;;;;;;;6.00;4.00;;;;;16.31;62.30;101565.88;4880147;29;45873;-80
2022/07/05 05:16:25;;;;;;;;;5.25;4.00;;;;;16.32;62.95;101576.34;4879847;29;46080;-80
2022/07/05 05:18:54;;;;;;;;;5.00;4.00;;;;;16.28;62.83;101579.38;4879790;29;45737;-79
2022/07/05 05:21:25;;;;;;;;;4.25;4.25;;;;;16.27;62.91;101582.97;4880096;29;45613;-80
2022/07/05 05:24:18;;;;;;;;;5.00;4.75;;;;;16.19;63.10;101564.25;4878093;29;45923;-79
2022/07/05 05:26:43;;;;;;;;;6.00;6.00;;;;;16.16;63.34;101549.44;4879410;29;46681;-79
2022/07/05 05:29:08;;;;;;;;;5.00;3.75;;;;;16.30;62.98;101577.44;4879338;29;46266;-79
2022/07/05 05:31:34;;;;;;;;;4.00;3.75;;;;;16.36;63.42;101574.28;4879867;29;45639;-79
2022/07/05 05:33:59;;;;;;;;;6.50;5.25;;;;;16.34;63.17;101585.00;4879793;29;45926;-77
2022/07/05 05:36:24;;;;;;;;;6.00;5.00;;;;;16.38;63.47;101594.38;4879486;29;46462;-79
2022/07/05 05:38:52;;;;;;;;;5.00;4.75;;;;;16.31;64.03;101582.59;4879279;29;45721;-78
2022/07/05 05:41:18;;;;;;;;;7.50;6.00;;;;;16.34;63.34;101582.38;4862308;29;45872;-79
2022/07/05 05:43:43;;;;;;;;;6.00;5.25;;;;;16.35;63.44;101584.06;4879400;29;45641;-82
2022/07/05 05:46:09;;;;;;;;;7.00;5.00;;;;;16.45;63.64;101602.66;4879264;29;46288;-81
2022/07/05 05:48:34;;;;;;;;;7.00;6.25;;;;;16.36;63.22;101592.81;4878376;29;45769;-81
2022/07/05 05:51:00;;;;;;;;;5.00;5.00;;;;;16.37;63.58;101597.13;4878850;29;45624;-82
2022/07/05 05:53:26;;;;;;;;;7.00;7.00;;;;;16.43;63.36;101609.03;4878813;29;45955;-81
2022/07/05 05:55:51;;;;;;;;;8.00;5.25;;;;;16.47;63.58;101608.66;4879134;29;46692;-81
2022/07/05 06:01:51;;;;;;;;;8.00;6.00;;;;;16.51;63.19;101610.13;4879097;29;45533;-81
2022/07/05 06:04:19;;;;;;;;;7.00;5.75;;;;;16.49;63.50;101609.41;4879204;29;45638;-80
2022/07/05 06:06:45;;;;;;;;;7.00;5.00;;;;;16.53;63.36;101618.75;4879092;29;45672;-81
2022/07/05 06:09:16;;;;;;;;;8.50;7.00;;;;;16.42;63.56;101594.97;4878857;29;45600;-84
2022/07/05 06:11:41;;;;;;;;;8.50;7.25;;;;;16.58;63.70;101613.94;4861540;29;45959;-82
2022/07/05 06:14:07;;;;;;;;;7.25;6.00;;;;;16.48;63.27;101589.19;4879298;29;45705;-82
2022/07/05 06:16:32;;;;;;;;;6.75;6.00;;;;;16.64;63.67;101608.19;4879293;29;45597;-82
2022/07/05 06:18:58;;;;;;;;;8.00;7.25;;;;;16.65;62.99;101601.09;4879114;29;46130;-83
2022/07/05 06:21:23;;;;;;;;;9.00;8.00;;;;;16.63;63.21;101603.00;4879120;29;45764;-82
2022/07/05 06:23:49;;;;;;;;;8.25;6.00;;;;;16.72;63.19;101602.28;4879353;29;45616;-82
2022/07/05 06:26:14;;;;;;;;;6.00;6.00;;;;;16.76;63.24;101612.50;4879124;29;45689;-81
2022/07/05 06:32:01;;;;;;;;;8.75;7.50;;;;;16.92;63.07;101612.09;4878966;29;45747;-82
2022/07/05 06:34:27;;;;;;;;;12.00;9.00;;;;;16.93;63.16;101623.53;4879139;29;45727;-82
2022/07/05 06:36:52;;;;;;;;;6.75;6.25;;;;;16.94;62.95;101617.28;4878653;29;46870;-82
2022/07/05 06:39:18;;;;;;;;;7.50;7.25;;;;;16.91;62.93;101614.84;4878894;29;46129;-82
2022/07/05 06:41:43;;;;;;;;;10.25;9.00;;;;;16.96;63.44;101628.56;4879613;29;45700;-82
2022/07/05 06:44:08;;;;;;;;;7.50;7.50;;;;;16.97;63.29;101622.31;4879015;29;45619;-83
2022/07/05 06:46:34;;;;;;;;;8.00;7.25;;;;;17.00;63.55;101627.38;4879126;29;45934;-82
2022/07/05 06:48:59;;;;;;;;;7.75;7.00;;;;;16.98;63.20;101630.13;4860925;29;47140;-82
2022/07/05 06:51:25;;;;;;;;;9.00;8.00;;;;;16.98;63.25;101608.09;4879154;29;45721;-83
2022/07/05 06:53:50;;;;;;;;;7.00;6.25;;;;;17.03;63.22;101625.28;4861903;29;45880;-82
2022/07/05 06:56:15;;;;;;;;;6.50;6.00;;;;;16.98;62.96;101611.59;4878288;29;45834;-82
2022/07/05 07:02:03;;;;;;;;;9.00;8.00;;;;;17.08;63.13;101609.88;4878020;29;45682;-82
2022/07/05 07:04:28;;;;;;;;;9.50;8.25;;;;;17.27;62.80;101632.19;4878390;29;45665;-81
2022/07/05 07:06:53;;;;;;;;;7.75;7.00;;;;;17.34;62.46;101630.69;4878236;29;46679;-85
2022/07/05 07:09:20;;;;;;;;;8.00;7.25;;;;;17.36;62.17;101624.31;4878296;29;45729;-81
2022/07/05 07:11:46;;;;;;;;;9.50;7.75;;;;;17.44;62.22;101629.81;4878163;29;45876;-83
2022/07/05 07:17:33;;;;;;;;;8.00;7.75;;;;;17.51;62.32;101622.19;4878007;29;46051;-85
2022/07/05 07:19:59;;;;;;;;;8.75;8.00;;;;;17.60;61.98;101632.03;4877346;29;45813;-81
2022/07/05 07:22:24;;;;;;;;;10.25;8.00;;;;;17.59;61.87;101625.94;4878873;29;45828;-86
2022/07/05 07:24:49;;;;;;;;;10.00;9.00;;;;;17.59;61.45;101617.97;4882907;29;45936;-84
2022/07/05 07:27:15;;;;;;;;;9.00;8.00;;;;;17.68;61.33;101629.59;4886032;29;46693;-83
2022/07/05 07:29:41;;;;;;;;;5.00;5.00;;;;;17.79;61.34;101632.19;4884489;29;45617;-79
2022/07/05 07:32:07;;;;;;;;;10.00;8.25;;;;;17.81;61.22;101638.19;4881418;29;45558;-82
2022/07/05 07:34:33;;;;;;;;;7.50;7.50;;;;;17.87;61.16;101634.16;4879599;29;45732;-81
2022/07/05 07:36:59;;;;;;;;;11.25;8.00;;;;;17.90;61.32;101632.09;4879260;29;47210;-78
2022/07/05 07:39:26;;;;;;;;;9.50;8.00;;;;;17.95;61.26;101640.50;4879603;29;46304;-79
2022/07/05 07:41:52;;;;;;;;;10.75;9.25;;;;;18.01;60.65;101642.63;4879229;29;45753;-79
2022/07/05 07:47:52;;;;;;;;;10.50;10.00;;;;;18.14;60.85;101639.75;4877284;29;46188;-80
2022/07/05 07:50:18;;;;;;;;;8.75;7.75;;;;;18.18;59.99;101645.66;4878468;29;46404;-79
2022/07/05 07:52:44;;;;;;;;;7.50;7.00;;;;;18.15;60.12;101633.47;4861714;29;45672;-82
2022/07/05 07:55:10;;;;;;;;;9.00;7.25;;;;;18.22;60.05;101639.09;4879015;29;45859;-79
2022/07/05 07:57:35;;;;;;;;;8.50;8.00;;;;;18.31;60.05;101652.41;4877263;29;45807;-82
2022/07/05 08:00:02;;;;;;;;;9.00;7.50;;;;;18.33;59.81;101645.16;4877231;29;46133;-79
2022/07/05 08:02:27;;;;;;;;;11.25;9.00;;;;;18.43;59.60;101648.69;4860456;29;45713;-79
2022/07/05 08:04:53;;;;;;;;;9.00;8.00;;;;;18.36;59.69;101639.56;4877975;29;45502;-81
2022/07/05 08:07:19;;;;;;;;;8.25;6.50;;;;;18.50;59.81;101651.66;4877416;29;46796;-80
2022/07/05 08:09:45;;;;;;;;;9.25;8.75;;;;;18.54;59.68;101641.59;4877578;29;46153;-79
2022/07/05 08:12:11;;;;;;;;;8.75;8.00;;;;;18.58;59.09;101643.88;4877639;29;45614;-80
2022/07/05 08:23:26;;;;;;;;;7.00;7.00;;;;;18.83;58.80;101646.03;4880817;29;45750;-84
2022/07/05 08:25:51;;;;;;;;;7.25;6.50;;;;;18.88;58.56;101637.66;4878425;29;45737;-84
2022/07/05 08:28:17;;;;;;;;;7.25;7.00;;;;;18.92;57.86;101639.06;4878527;29;45631;-85
2022/07/05 08:30:42;;;;;;;;;8.25;8.00;;;;;18.93;58.01;101627.47;4878727;29;45559;-83
2022/07/05 08:33:08;;;;;;;;;7.75;7.00;;;;;19.00;57.48;101636.53;4881672;29;45661;-83
2022/07/05 08:35:33;;;;;;;;;10.00;8.75;;;;;19.00;57.28;101620.59;4882108;29;45582;-84
2022/07/05 08:37:58;;;;;;;;;7.00;7.00;;;;;19.15;57.21;101634.34;4881439;29;45861;-84
2022/07/05 08:40:26;;;;;;;;;7.75;7.00;;;;;19.13;56.82;101623.00;4881856;29;46213;-85
2022/07/05 08:42:54;;;;;;;;;7.00;7.00;;;;;19.18;56.92;101618.94;4880712;29;45901;-83
2022/07/05 08:45:21;;;;;;;;;6.00;6.00;;;;;19.29;56.68;101633.91;4880738;29;45512;-83
2022/07/05 08:47:47;;;;;;;;;4.00;4.00;;;;;19.36;56.38;101632.38;4866449;29;48316;-84
2022/07/05 08:50:15;;;;;;;;;6.00;5.50;;;;;19.39;56.20;101631.22;4887556;29;45626;-84
2022/07/05 08:52:41;;;;;;;;;7.25;6.50;;;;;19.43;56.13;101624.69;4871631;29;45615;-84
2022/07/05 08:55:07;;;;;;;;;4.50;4.00;;;;;19.53;55.87;101626.38;4884394;29;45646;-85
2022/07/05 08:57:32;;;;;;;;;4.00;4.00;;;;;19.57;55.07;101624.25;4881500;29;45636;-85
2022/07/05 09:03:25;;;;;;;;;5.00;4.75;;;;;19.67;54.40;101631.25;4880226;29;45608;-83
2022/07/05 09:05:56;;;;;;;;;5.00;5.00;;;;;19.62;54.50;101614.03;4880946;29;45749;-82
2022/07/05 09:08:22;;;;;;;;;6.25;5.25;;;;;19.77;54.56;101636.53;4880341;29;45728;-85
2022/07/05 09:10:50;;;;;;;;;4.75;4.75;;;;;19.78;54.18;101619.59;4881796;29;46341;-85
2022/07/05 09:13:15;;;;;;;;;5.25;5.00;;;;;19.82;54.01;101618.31;4864506;29;45769;-83
2022/07/05 09:15:41;;;;;;;;;5.00;4.50;;;;;19.89;53.85;101618.59;4864080;29;45662;-83
2022/07/05 09:18:07;;;;;;;;;3.00;3.00;;;;;19.87;53.73;101604.59;4880232;29;46466;-83
2022/07/05 09:20:32;;;;;;;;;4.50;4.50;;;;;19.97;53.46;101605.44;4881714;29;45670;-82
2022/07/05 09:22:58;;;;;;;;;5.00;4.00;;;;;20.03;53.02;101618.97;4879159;29;45709;-86
2022/07/05 09:25:28;;;;;;;;;6.00;6.00;;;;;20.13;53.29;101633.06;4880416;29;45502;-85
2022/07/05 09:34:37;;;;;;;;;5.25;4.25;;;;;20.28;52.50;101629.94;4880154;29;45636;-82
2022/07/05 09:37:03;;;;;;;;;6.50;5.00;;;;;20.33;51.92;101627.72;4879678;29;45656;-83
2022/07/05 09:39:29;;;;;;;;;5.25;5.25;;;;;20.37;51.83;101618.44;4862051;29;46460;-83
2022/07/05 09:42:10;;;;;;;;;7.00;6.25;;;;;20.42;51.70;101629.47;4862667;29;48380;-83
2022/07/05 09:44:42;;;;;;;;;5.00;5.00;;;;;20.42;51.65;101622.34;4861737;29;45647;-83
2022/07/05 09:47:10;;;;;;;;;5.25;5.25;;;;;20.50;51.21;101621.59;4878780;29;45791;-82
2022/07/05 09:49:40;;;;;;;;;5.25;4.25;;;;;20.56;51.17;101625.50;4881452;29;45842;-82
2022/07/05 09:52:06;;;;;;;;;5.00;4.75;;;;;20.61;50.98;101626.72;4880908;29;45697;-83
2022/07/05 09:54:31;;;;;;;;;4.25;4.25;;;;;20.66;50.85;101629.78;4878007;29;45673;-83
2022/07/05 09:56:57;;;;;;;;;4.50;4.50;;;;;20.66;50.90;101627.13;4877434;29;45806;-82
2022/07/05 09:59:22;;;;;;;;;3.75;3.75;;;;;20.71;50.02;101629.31;4879124;29;46464;-82
2022/07/05 10:01:48;;;;;;;;;4.00;4.00;;;;;20.76;50.27;101635.88;4879285;29;46183;-83
2022/07/05 10:04:13;;;;;;;;;5.75;4.75;;;;;20.81;50.51;101633.59;4879207;29;45782;-82
2022/07/05 10:06:40;;;;;;;;;5.25;4.25;;;;;20.87;49.90;101625.00;4879223;29;45553;-83
2022/07/05 10:09:05;;;;;;;;;6.50;4.75;;;;;20.90;50.00;101621.19;4878831;29;45785;-83
2022/07/05 10:11:31;;;;;;;;;5.50;5.25;;;;;20.99;49.25;101632.78;4879056;29;45634;-83
2022/07/05 10:13:58;;;;;;;;;3.75;3.75;;;;;21.04;48.80;101627.84;4861704;29;45781;-82
2022/07/05 10:16:24;;;;;;;;;4.75;4.75;;;;;21.05;48.65;101626.88;4878958;29;45667;-83
2022/07/05 10:18:55;;;;;;;;;3.50;3.50;;;;;21.12;48.70;101634.06;4861076;29;47686;-82
2022/07/05 10:21:21;;;;;;;;;4.75;4.00;;;;;21.11;48.67;101619.06;4878616;29;45705;-82
2022/07/05 10:23:48;;;;;;;;;5.00;5.00;;;;;21.17;48.38;101629.16;4878805;29;45640;-83
2022/07/05 10:26:16;;;;;;;;;5.00;4.25;;;;;21.23;48.27;101633.03;4878741;29;45624;-82
2022/07/05 10:28:46;;;;;;;;;5.75;5.75;;;;;21.29;47.64;101629.75;4878299;29;45702;-83
2022/07/05 10:31:12;;;;;;;;;4.75;4.50;;;;;21.38;47.68;101631.50;4879108;29;46154;-81
2022/07/05 10:33:38;;;;;;;;;5.75;5.00;;;;;21.44;47.64;101640.72;4878838;29;45855;-81
2022/07/05 10:36:05;;;;;;;;;5.00;5.00;;;;;21.48;47.85;101629.59;4877293;29;45962;-83
2022/07/05 10:38:35;;;;;;;;;6.75;6.25;;;;;21.53;48.11;101629.16;4878365;29;45781;-83
2022/07/05 10:41:04;;;;;;;;;5.00;5.00;;;;;21.62;47.93;101633.53;4878501;29;46358;-82
2022/07/05 10:43:30;;;;;;;;;8.50;6.25;;;;;21.65;47.76;101627.88;4878526;29;45582;-81
2022/07/05 10:49:20;;;;;;;;;4.50;4.50;;;;;21.66;46.47;101618.88;4876100;29;46160;-83
2022/07/05 10:51:46;;;;;;;;;6.75;5.00;;;;;21.73;46.93;101620.78;4861266;29;47105;-83
2022/07/05 10:54:12;;;;;;;;;5.00;4.25;;;;;21.70;47.40;101597.06;4877914;29;45635;-82
2022/07/05 10:56:38;;;;;;;;;4.75;4.75;;;;;21.77;46.88;101599.94;4876057;29;45913;-83
2022/07/05 10:59:09;;;;;;;;;6.75;5.00;;;;;21.78;46.47;101602.47;4878498;29;45805;-83
2022/07/05 11:01:36;;;;;;;;;3.75;3.75;;;;;21.89;46.68;101629.88;4865903;29;47564;-80
2022/07/05 11:04:01;;;;;;;;;5.00;4.75;;;;;21.92;46.44;101617.06;4884775;29;46000;-80
2022/07/05 11:06:31;;;;;;;;;5.00;5.00;;;;;21.96;46.80;101615.78;4883926;29;45820;-83
2022/07/05 11:08:56;;;;;;;;;4.25;4.00;;;;;22.01;46.01;101623.31;4882465;29;46468;-78
2022/07/05 11:11:33;;;;;;;;;4.00;4.00;;;;;22.05;45.97;101614.00;4881939;29;46630;-79
2022/07/05 11:14:01;;;;;;;;;4.25;4.25;;;;;22.03;45.83;101597.28;4864518;29;46028;-82
2022/07/05 11:16:34;;;;;;;;;5.00;5.00;;;;;22.08;46.23;101603.81;4881994;29;45614;-81
2022/07/05 11:19:07;;;;;;;;;5.00;4.00;;;;;22.19;45.19;101626.75;4880655;29;45687;-82
2022/07/05 11:21:33;;;;;;;;;5.50;4.00;;;;;22.23;45.67;101628.13;4879007;29;46091;-82
2022/07/05 11:24:18;;;;;;;;;5.50;5.50;;;;;22.26;45.54;101593.06;4879324;29;45681;-81
2022/07/05 11:26:44;;;;;;;;;5.00;4.50;;;;;22.22;45.01;101602.41;4879966;29;45768;-84
2022/07/05 11:29:41;;;;;;;;;4.00;4.00;;;;;22.37;45.21;101600.78;4862524;29;48710;-81
2022/07/05 11:32:08;;;;;;;;;3.00;3.00;;;;;22.45;44.66;101605.34;4880381;29;46417;-84
2022/07/05 11:34:35;;;;;;;;;6.00;4.75;;;;;22.45;44.80;101597.31;4883864;29;45965;-83
2022/07/05 11:37:23;;;;;;;;;4.00;4.00;;;;;22.56;44.47;101615.72;4883106;29;45741;-83
2022/07/05 11:40:11;;;;;;;;;3.75;3.00;;;;;22.60;44.28;101601.03;4882797;29;45617;-81
2022/07/05 11:42:39;;;;;;;;;5.00;5.00;;;;;22.63;43.65;101606.03;4883914;29;46052;-82
2022/07/05 11:45:11;;;;;;;;;4.00;3.75;;;;;22.58;43.60;101587.84;4885506;29;45742;-82
2022/07/05 11:47:36;;;;;;;;;4.25;3.75;;;;;22.74;43.94;101611.13;4886318;29;45820;-85
2022/07/05 11:50:02;;;;;;;;;3.00;3.00;;;;;22.74;43.71;101592.41;4881483;29;46617;-83
2022/07/05 11:52:30;;;;;;;;;4.00;4.00;;;;;22.77;43.55;101594.78;4881080;29;45807;-83
2022/07/05 11:55:01;;;;;;;;;4.75;4.75;;;;;22.88;43.27;101593.63;4878582;29;45699;-84
2022/07/05 11:57:26;;;;;;;;;4.00;4.00;;;;;22.86;43.47;101577.75;4877936;29;45697;-83
2022/07/05 11:59:52;;;;;;;;;3.25;3.00;;;;;22.98;43.12;101616.53;4878179;29;45733;-82
2022/07/05 12:02:18;;;;;;;;;5.00;4.00;;;;;22.92;42.66;101577.09;4861374;29;46563;-83
2022/07/05 12:04:52;;;;;;;;;3.75;3.50;;;;;23.05;42.59;101576.56;4877813;29;45792;-81
2022/07/05 12:07:32;;;;;;;;;4.00;4.00;;;;;23.15;42.71;101573.75;4879540;29;45608;-79
2022/07/05 12:12:53;;;;;;;;;3.00;3.00;;;;;23.28;42.66;101585.59;4841104;29;46084;-80
2022/07/05 12:15:20;;;;;;;;;3.00;3.00;;;;;23.17;42.40;101563.72;4841297;29;46098;-80
2022/07/05 12:17:51;;;;;;;;;4.00;3.50;;;;;23.37;41.41;101581.91;4841417;29;45837;-84
2022/07/05 12:20:24;;;;;;;;;4.00;4.00;;;;;23.39;41.70;101569.22;4826068;29;48344;-82
2022/07/05 12:22:50;;;;;;;;;4.50;4.00;;;;;23.47;41.78;101586.31;4841252;29;45828;-81
2022/07/05 12:25:18;;;;;;;;;5.25;3.25;;;;;23.43;41.48;101554.50;4841086;29;45750;-82
2022/07/05 12:27:45;;;;;;;;;5.00;4.00;;;;;23.55;41.61;101565.72;4841259;29;45648;-82
2022/07/05 12:30:11;;;;;;;;;4.25;4.25;;;;;23.57;40.86;101558.38;4841350;29;46511;-82
2022/07/05 12:33:09;;;;;;;;;3.00;2.50;;;;;23.60;41.51;101560.69;4841392;29;45663;-80
2022/07/05 12:35:46;;;;;;;;;2.25;2.00;;;;;23.63;41.49;101568.41;4841091;29;46062;-78
2022/07/05 12:38:18;;;;;;;;;4.00;4.00;;;;;23.64;40.93;101561.19;4840640;29;45734;-78
2022/07/05 12:40:57;;;;;;;;;3.00;3.00;;;;;23.66;40.90;101570.72;4840488;29;46382;-79
2022/07/05 12:43:23;;;;;;;;;4.50;4.00;;;;;23.62;40.72;101557.84;4840820;29;47673;-81
2022/07/05 12:46:02;;;;;;;;;3.50;3.50;;;;;23.71;40.59;101567.53;4840897;29;45697;-80
2022/07/05 12:48:35;;;;;;;;;3.75;3.50;;;;;23.74;40.17;101585.94;4846456;29;45886;-80